Time;durP1;ratioP1;P1;durP2;ratioP2;P2;SDS_P1;SDS_P2;PMS_P1;PMS_P2;Temp;Humidity;BMP_temperature;BMP_pressure;BME280_temperature;BME280_humidity;BME280_pressure;Samples;Min_cycle;Max_cycle;Signal;HPM_P1;HPM_P2
2021/12/19 00:10:37;;;;;;;;;;;;;;;6.68;62.00;100657.37;4355351;32;35235;-93
2021/12/19 00:13:06;;;;;;;;;;;;;;;6.69;61.61;100641.41;4341590;32;33167;-93
2021/12/19 00:15:34;;;;;;;;;;;;;;;6.64;61.88;100642.66;4355490;32;35256;-90
2021/12/19 00:18:02;;;;;;;;;;;;;;;6.69;61.79;100633.50;4358765;32;33506;-93
2021/12/19 00:20:30;;;;;;;;;;;;;;;6.39;62.83;100635.47;4365445;32;35127;-91
2021/12/19 00:23:15;;;;;;;;;;;;;;;6.63;62.11;100631.22;4339656;32;34361;-91
2021/12/19 00:25:43;;;;;;;;;;;;;;;6.82;61.54;100621.16;4340298;32;31855;-93
2021/12/19 00:28:10;;;;;;;;;;;;;;;6.68;62.11;100618.56;4331729;32;33402;-91
2021/12/19 00:30:38;;;;;;;;;;;;;;;6.28;63.89;100621.22;4327378;32;33489;-91
2021/12/19 00:33:06;;;;;;;;;;;;;;;6.48;63.27;100620.81;4341801;32;34362;-92
2021/12/19 00:35:33;;;;;;;;;;;;;;;6.62;62.90;100618.12;4355387;32;33127;-93
2021/12/19 00:38:00;;;;;;;;;;;;;;;6.62;62.92;100611.03;4345039;32;33823;-91
2021/12/19 00:40:28;;;;;;;;;;;;;;;6.69;62.82;100612.34;4342648;32;35830;-90
2021/12/19 00:43:09;;;;;;;;;;;;;;;6.49;63.19;100612.78;4343084;32;34165;-92
2021/12/19 00:45:40;;;;;;;;;;;;;;;6.37;63.57;100612.72;4346268;32;33142;-90
2021/12/19 00:48:08;;;;;;;;;;;;;;;6.60;62.97;100609.47;4355522;32;33557;-90
2021/12/19 00:50:36;;;;;;;;;;;;;;;6.56;63.09;100618.50;4353722;32;35179;-92
2021/12/19 00:53:04;;;;;;;;;;;;;;;6.57;63.16;100614.91;4331786;32;33021;-93
2021/12/19 00:55:33;;;;;;;;;;;;;;;6.56;63.08;100606.16;4353596;32;34041;-91
2021/12/19 00:58:00;;;;;;;;;;;;;;;6.33;64.22;100603.31;4342961;32;32972;-89
2021/12/19 01:00:30;;;;;;;;;;;;;;;6.12;65.03;100599.37;4353621;32;35577;-92
2021/12/19 01:02:59;;;;;;;;;;;;;;;6.33;64.67;100592.75;4346302;32;34012;-92
2021/12/19 01:05:30;;;;;;;;;;;;;;;6.32;64.31;100596.28;4354421;32;34690;-90
2021/12/19 01:07:57;;;;;;;;;;;;;;;6.16;65.23;100596.44;4343074;32;32880;-89
2021/12/19 01:10:25;;;;;;;;;;;;;;;6.38;64.79;100609.13;4354719;32;35444;-92
2021/12/19 01:12:53;;;;;;;;;;;;;;;6.54;64.22;100599.28;4331333;32;32671;-93
2021/12/19 01:15:20;;;;;;;;;;;;;;;6.60;63.96;100594.44;4330144;32;31622;-92
2021/12/19 01:17:48;;;;;;;;;;;;;;;6.44;64.57;100582.31;4356366;32;34265;-91
2021/12/19 01:20:17;;;;;;;;;;;;;;;6.29;65.14;100578.88;4353462;32;34853;-90
2021/12/19 01:22:45;;;;;;;;;;;;;;;6.57;64.27;100562.91;4363420;32;34088;-92
2021/12/19 01:25:13;;;;;;;;;;;;;;;6.44;64.99;100566.47;4366709;32;33856;-92
2021/12/19 01:27:41;;;;;;;;;;;;;;;6.53;64.61;100552.66;4359240;32;33104;-92
2021/12/19 01:30:08;;;;;;;;;;;;;;;6.72;64.33;100545.19;4356171;32;34993;-91
2021/12/19 01:32:37;;;;;;;;;;;;;;;6.48;65.37;100531.78;4354695;32;35444;-90
2021/12/19 01:35:06;;;;;;;;;;;;;;;6.40;65.86;100526.16;4353083;32;33226;-90
2021/12/19 01:37:33;;;;;;;;;;;;;;;6.27;66.24;100520.00;4353091;32;32324;-93
2021/12/19 01:40:00;;;;;;;;;;;;;;;6.34;66.29;100517.78;4354317;32;35289;-87
2021/12/19 01:42:32;;;;;;;;;;;;;;;6.15;67.23;100515.47;4353115;32;35282;-91
2021/12/19 01:45:00;;;;;;;;;;;;;;;6.25;67.14;100511.28;4354370;32;33133;-87
2021/12/19 01:47:28;;;;;;;;;;;;;;;6.35;66.84;100517.69;4353660;32;34312;-92
2021/12/19 01:49:56;;;;;;;;;;;;;;;6.41;66.85;100527.84;4364859;32;34576;-91
2021/12/19 01:52:28;;;;;;;;;;;;;;;6.24;67.42;100514.87;4353658;32;33772;-91
2021/12/19 01:54:56;;;;;;;;;;;;;;;6.37;67.16;100515.81;4352462;32;33440;-93
2021/12/19 01:57:25;;;;;;;;;;;;;;;6.53;66.49;100516.47;4351897;32;34242;-89
2021/12/19 01:59:52;;;;;;;;;;;;;;;6.45;66.95;100510.00;4344820;32;33553;-92
2021/12/19 02:02:21;;;;;;;;;;;;;;;6.62;66.40;100507.09;4354370;32;34446;-91
2021/12/19 02:04:49;;;;;;;;;;;;;;;6.49;66.92;100500.91;4365961;32;31943;-91
2021/12/19 02:07:16;;;;;;;;;;;;;;;6.81;65.83;100484.59;4353616;32;34441;-91
2021/12/19 02:09:44;;;;;;;;;;;;;;;6.28;67.80;100481.19;4363743;32;33133;-93
2021/12/19 02:12:12;;;;;;;;;;;;;;;6.50;67.20;100482.31;4351270;32;33739;-92
2021/12/19 02:14:40;;;;;;;;;;;;;;;6.53;66.92;100468.06;4366329;32;33631;-89
2021/12/19 02:17:07;;;;;;;;;;;;;;;6.65;66.57;100470.72;4354968;32;33901;-92
2021/12/19 02:19:36;;;;;;;;;;;;;;;6.59;66.73;100462.34;4351775;32;35627;-93
2021/12/19 02:22:04;;;;;;;;;;;;;;;6.48;67.53;100459.56;4354888;32;34150;-93
2021/12/19 02:24:31;;;;;;;;;;;;;;;6.74;66.69;100454.25;4348776;32;33170;-86
2021/12/19 02:26:59;;;;;;;;;;;;;;;6.76;66.54;100449.69;4356200;32;34841;-90
2021/12/19 02:29:26;;;;;;;;;;;;;;;6.42;67.87;100444.16;4351625;32;35311;-90
2021/12/19 02:31:53;;;;;;;;;;;;;;;6.63;66.99;100430.31;4356632;32;34502;-89
2021/12/19 02:34:26;;;;;;;;;;;;;;;6.84;66.45;100425.34;4357301;32;32895;-89
2021/12/19 02:40:05;;;;;;;;;;;;;;;7.04;65.78;100420.37;4360600;32;34332;-89
2021/12/19 02:48:11;;;;;;;;;;;;;;;7.05;65.59;100427.37;4359402;32;33841;-93
2021/12/19 02:50:46;;;;;;;;;;;;;;;6.97;65.85;100420.91;4344684;32;33824;-94
2021/12/19 02:53:14;;;;;;;;;;;;;;;7.18;65.24;100409.66;4359283;32;34394;-92
2021/12/19 02:55:43;;;;;;;;;;;;;;;7.21;65.04;100393.59;4359476;32;33196;-91
2021/12/19 02:58:10;;;;;;;;;;;;;;;6.99;65.72;100397.84;4341382;32;34020;-92
2021/12/19 03:00:38;;;;;;;;;;;;;;;6.96;65.93;100392.75;4357109;32;34964;-91
2021/12/19 03:03:08;;;;;;;;;;;;;;;7.00;65.26;100389.78;4356430;32;34559;-91
2021/12/19 03:05:37;;;;;;;;;;;;;;;6.92;65.66;100378.91;4343372;32;31397;-87
2021/12/19 03:08:07;;;;;;;;;;;;;;;6.52;66.65;100377.31;4359713;32;34062;-89
2021/12/19 03:13:36;;;;;;;;;;;;;;;6.70;66.35;100368.12;4364697;32;35239;-93
2021/12/19 03:18:50;;;;;;;;;;;;;;;6.95;65.40;100367.25;4343362;32;34194;-91
2021/12/19 03:21:23;;;;;;;;;;;;;;;7.00;65.17;100350.09;4361134;32;34964;-93
2021/12/19 03:23:52;;;;;;;;;;;;;;;6.95;65.35;100346.97;4356364;32;34752;-91
2021/12/19 03:26:20;;;;;;;;;;;;;;;6.77;65.53;100342.97;4355785;32;33298;-89
2021/12/19 03:28:48;;;;;;;;;;;;;;;6.82;65.61;100340.81;4355501;32;33582;-92
2021/12/19 03:31:16;;;;;;;;;;;;;;;6.92;65.21;100341.87;4355918;32;35048;-88
2021/12/19 03:33:43;;;;;;;;;;;;;;;6.59;66.15;100357.47;4367076;32;36468;-94
2021/12/19 03:36:11;;;;;;;;;;;;;;;6.65;65.92;100337.69;4359290;32;32314;-90
2021/12/19 03:38:43;;;;;;;;;;;;;;;6.80;65.44;100333.97;4368069;32;33724;-93
2021/12/19 03:43:40;;;;;;;;;;;;;;;6.67;65.86;100312.84;4361604;32;35141;-87
2021/12/19 03:46:08;;;;;;;;;;;;;;;6.48;66.42;100311.56;4353139;32;32076;-91
2021/12/19 03:48:36;;;;;;;;;;;;;;;6.57;66.21;100295.06;4360451;32;32351;-89
2021/12/19 03:51:03;;;;;;;;;;;;;;;6.46;66.80;100294.97;4356323;32;35608;-92
2021/12/19 03:53:31;;;;;;;;;;;;;;;6.82;65.31;100284.47;4346118;32;33418;-87
2021/12/19 03:55:59;;;;;;;;;;;;;;;6.84;65.06;100287.84;4366611;32;34172;-92
2021/12/19 03:58:27;;;;;;;;;;;;;;;6.62;65.88;100283.22;4359314;32;33054;-92
2021/12/19 04:00:59;;;;;;;;;;;;;;;6.61;66.03;100294.75;4355888;32;35085;-89
2021/12/19 04:03:29;;;;;;;;;;;;;;;6.63;65.80;100297.28;4354798;32;34513;-91
2021/12/19 04:05:57;;;;;;;;;;;;;;;6.67;65.75;100296.12;4346678;32;32575;-91
2021/12/19 04:08:24;;;;;;;;;;;;;;;6.91;64.98;100297.87;4356092;32;33962;-92
2021/12/19 04:10:52;;;;;;;;;;;;;;;7.04;64.28;100309.28;4354540;32;34297;-90
2021/12/19 04:13:21;;;;;;;;;;;;;;;6.94;64.55;100304.75;4342248;32;33439;-90
2021/12/19 04:15:49;;;;;;;;;;;;;;;6.84;64.63;100291.34;4354773;32;31955;-91
2021/12/19 04:18:18;;;;;;;;;;;;;;;6.75;65.19;100301.72;4342975;32;33446;-90
2021/12/19 04:20:45;;;;;;;;;;;;;;;6.76;64.79;100301.63;4361795;32;36004;-90
2021/12/19 04:23:12;;;;;;;;;;;;;;;6.63;64.97;100299.94;4351956;32;33278;-88
2021/12/19 04:25:41;;;;;;;;;;;;;;;6.61;65.01;100302.69;4353768;32;32311;-92
2021/12/19 04:28:08;;;;;;;;;;;;;;;6.45;65.46;100312.63;4354866;32;34338;-91
2021/12/19 04:30:36;;;;;;;;;;;;;;;6.37;65.68;100304.41;4361072;32;33680;-89
2021/12/19 04:33:09;;;;;;;;;;;;;;;6.47;65.31;100302.81;4355830;32;33998;-88
2021/12/19 04:35:39;;;;;;;;;;;;;;;6.73;64.26;100296.53;4364771;32;33814;-91
2021/12/19 04:38:57;;;;;;;;;;;;;;;6.53;65.25;100297.06;4355226;32;33558;-89
2021/12/19 04:44:38;;;;;;;;;;;;;;;6.76;63.91;100288.41;4352923;32;32784;-93
2021/12/19 05:03:05;;;;;;;;;;;;;;;6.86;63.19;100278.00;4343655;32;34340;-92
2021/12/19 05:16:31;;;;;;;;;;;;;;;6.80;63.51;100250.19;4354855;32;34536;-86
2021/12/19 05:19:06;;;;;;;;;;;;;;;6.75;63.74;100254.97;4355119;32;33377;-93
2021/12/19 05:21:37;;;;;;;;;;;;;;;6.59;64.59;100259.66;4365020;32;33243;-93
2021/12/19 05:24:20;;;;;;;;;;;;;;;6.50;65.27;100257.66;4360290;32;34873;-93
2021/12/19 05:26:48;;;;;;;;;;;;;;;6.70;64.18;100258.91;4351067;32;33470;-89
2021/12/19 05:29:16;;;;;;;;;;;;;;;7.02;63.17;100258.28;4359141;32;32460;-92
2021/12/19 05:31:43;;;;;;;;;;;;;;;7.27;62.58;100247.59;4357719;32;33575;-93
2021/12/19 05:34:12;;;;;;;;;;;;;;;7.19;62.66;100239.38;4348366;32;34930;-90
2021/12/19 05:45:17;;;;;;;;;;;;;;;7.14;63.00;100217.72;4355333;32;35544;-92
2021/12/19 05:47:50;;;;;;;;;;;;;;;6.92;63.56;100212.28;4343326;32;33471;-91
2021/12/19 05:50:19;;;;;;;;;;;;;;;7.04;63.43;100210.53;4343290;32;32114;-91
2021/12/19 05:52:47;;;;;;;;;;;;;;;6.99;63.85;100221.47;4351151;32;33851;-89
2021/12/19 05:55:16;;;;;;;;;;;;;;;6.67;64.78;100206.22;4354562;32;34616;-92
2021/12/19 05:57:46;;;;;;;;;;;;;;;7.20;63.47;100204.03;4352189;32;33373;-90
2021/12/19 06:00:15;;;;;;;;;;;;;;;6.92;64.22;100211.44;4343688;32;32072;-92
2021/12/19 06:02:43;;;;;;;;;;;;;;;6.70;65.09;100216.59;4343276;32;34095;-92
2021/12/19 06:05:13;;;;;;;;;;;;;;;7.04;64.19;100199.97;4366093;32;33555;-91
2021/12/19 06:07:41;;;;;;;;;;;;;;;6.74;65.20;100188.97;4356126;32;34452;-92
2021/12/19 06:10:09;;;;;;;;;;;;;;;7.06;64.05;100195.41;4354433;32;31872;-91
2021/12/19 06:12:39;;;;;;;;;;;;;;;6.89;64.69;100193.16;4354462;32;34412;-92
2021/12/19 06:15:08;;;;;;;;;;;;;;;6.88;64.71;100194.13;4353877;32;34226;-89
2021/12/19 06:17:38;;;;;;;;;;;;;;;6.76;65.29;100195.84;4356091;32;35033;-93
2021/12/19 06:20:07;;;;;;;;;;;;;;;6.76;65.16;100190.56;4344381;32;33070;-92
2021/12/19 06:22:36;;;;;;;;;;;;;;;6.97;64.58;100183.72;4354809;32;33639;-94
2021/12/19 06:25:06;;;;;;;;;;;;;;;7.10;63.82;100191.59;4367022;32;34499;-89
2021/12/19 06:27:33;;;;;;;;;;;;;;;6.84;65.00;100179.41;4366501;32;34008;-90
2021/12/19 06:30:01;;;;;;;;;;;;;;;7.36;63.46;100186.03;4360799;32;32115;-91
2021/12/19 06:32:30;;;;;;;;;;;;;;;7.06;64.00;100176.88;4354414;32;33310;-91
2021/12/19 06:34:59;;;;;;;;;;;;;;;7.21;63.97;100170.47;4356098;32;34376;-93
2021/12/19 06:37:27;;;;;;;;;;;;;;;7.11;64.19;100182.69;4355603;32;33606;-92
2021/12/19 06:39:56;;;;;;;;;;;;;;;7.10;64.28;100170.44;4329815;32;32975;-90
2021/12/19 06:42:24;;;;;;;;;;;;;;;6.95;64.87;100172.41;4354072;32;33014;-91
2021/12/19 06:44:51;;;;;;;;;;;;;;;7.06;64.42;100161.00;4354551;32;34807;-90
2021/12/19 06:47:19;;;;;;;;;;;;;;;7.16;64.02;100162.03;4354669;32;33660;-93
2021/12/19 06:49:48;;;;;;;;;;;;;;;7.16;64.11;100159.41;4346731;32;33567;-93
2021/12/19 06:52:17;;;;;;;;;;;;;;;7.21;63.93;100158.09;4354631;32;32946;-93
2021/12/19 06:54:45;;;;;;;;;;;;;;;7.11;64.01;100157.09;4351992;32;35471;-91
2021/12/19 06:57:13;;;;;;;;;;;;;;;7.16;64.23;100152.28;4356291;32;33902;-90
2021/12/19 06:59:41;;;;;;;;;;;;;;;7.20;63.98;100166.13;4344933;32;33179;-93
2021/12/19 07:02:13;;;;;;;;;;;;;;;7.55;62.82;100153.75;4357475;32;34067;-92
2021/12/19 07:04:41;;;;;;;;;;;;;;;7.61;62.21;100147.97;4366879;32;34355;-93
2021/12/19 07:07:09;;;;;;;;;;;;;;;7.70;62.04;100140.19;4360073;32;34601;-94
2021/12/19 07:09:38;;;;;;;;;;;;;;;7.60;62.21;100147.12;4348838;32;33026;-93
2021/12/19 07:12:07;;;;;;;;;;;;;;;7.46;62.63;100141.22;4358363;32;33772;-90
2021/12/19 07:14:38;;;;;;;;;;;;;;;7.52;62.09;100138.94;4357211;32;35072;-93
2021/12/19 07:17:05;;;;;;;;;;;;;;;7.48;62.62;100137.50;4366677;32;32957;-93
2021/12/19 07:19:33;;;;;;;;;;;;;;;7.66;61.64;100122.00;4360859;32;31900;-92
2021/12/19 07:22:01;;;;;;;;;;;;;;;7.51;62.44;100123.16;4354295;32;34985;-91
2021/12/19 07:24:28;;;;;;;;;;;;;;;7.22;63.11;100119.22;4343716;32;33943;-91
2021/12/19 07:26:55;;;;;;;;;;;;;;;6.96;64.34;100126.47;4358215;32;33824;-92
2021/12/19 07:29:23;;;;;;;;;;;;;;;7.37;63.12;100113.62;4353825;32;33363;-88
2021/12/19 07:31:50;;;;;;;;;;;;;;;6.98;64.35;100129.84;4366104;32;34334;-92
2021/12/19 07:34:18;;;;;;;;;;;;;;;7.12;64.23;100127.03;4331875;32;912809;-90
2021/12/19 07:36:49;;;;;;;;;;;;;;;6.99;64.69;100128.87;4340793;32;32250;-94
2021/12/19 07:41:51;;;;;;;;;;;;;;;7.29;63.39;100134.53;4366282;32;34160;-93
2021/12/19 07:44:18;;;;;;;;;;;;;;;7.41;63.29;100130.97;4357478;32;35693;-93
2021/12/19 07:46:47;;;;;;;;;;;;;;;7.04;64.41;100134.69;4358337;32;34585;-93
2021/12/19 07:49:15;;;;;;;;;;;;;;;7.05;64.50;100133.72;4357640;32;33480;-92
2021/12/19 07:51:43;;;;;;;;;;;;;;;7.27;63.74;100123.22;4361700;32;33156;-92
2021/12/19 07:54:10;;;;;;;;;;;;;;;7.26;63.70;100126.00;4363647;32;34580;-91
2021/12/19 07:56:39;;;;;;;;;;;;;;;7.14;64.05;100119.81;4341253;32;34658;-92
2021/12/19 07:59:06;;;;;;;;;;;;;;;7.47;63.18;100119.91;4353478;32;33339;-90
2021/12/19 08:01:34;;;;;;;;;;;;;;;7.38;63.23;100111.84;4353678;32;33416;-91
2021/12/19 08:04:02;;;;;;;;;;;;;;;6.55;65.81;100117.25;4342984;32;34354;-92
2021/12/19 08:06:31;;;;;;;;;;;;;;;7.07;65.07;100109.81;4356047;32;34317;-91
2021/12/19 08:09:11;;;;;;;;;;;;;;;7.39;63.57;100117.00;4365614;32;33314;-92
2021/12/19 08:11:42;;;;;;;;;;;;;;;7.38;63.45;100104.72;4355109;32;34768;-94
2021/12/19 08:14:18;;;;;;;;;;;;;;;7.50;63.31;100087.91;4358688;32;35490;-94
2021/12/19 08:16:47;;;;;;;;;;;;;;;7.60;62.78;100090.69;4354394;32;34393;-93
2021/12/19 08:19:16;;;;;;;;;;;;;;;7.50;63.03;100072.03;4360491;32;31976;-94
2021/12/19 08:21:45;;;;;;;;;;;;;;;7.60;63.08;100077.44;4365703;32;34327;-93
2021/12/19 08:24:14;;;;;;;;;;;;;;;7.48;63.45;100070.47;4355950;32;36275;-91
2021/12/19 08:26:42;;;;;;;;;;;;;;;7.59;63.34;100065.16;4343133;32;33891;-92
2021/12/19 08:29:11;;;;;;;;;;;;;;;7.49;63.97;100078.28;4359773;32;32465;-90
2021/12/19 08:31:39;;;;;;;;;;;;;;;7.69;63.26;100077.59;4365194;32;34031;-92
2021/12/19 08:34:07;;;;;;;;;;;;;;;7.56;63.84;100060.94;4359176;32;35045;-90
2021/12/19 08:36:36;;;;;;;;;;;;;;;7.68;63.37;100052.06;4352735;32;35090;-90
2021/12/19 08:39:04;;;;;;;;;;;;;;;7.45;64.65;100057.47;4353994;32;32985;-89
2021/12/19 08:41:38;;;;;;;;;;;;;;;7.67;63.88;100049.53;4354276;32;34742;-88
2021/12/19 08:44:06;;;;;;;;;;;;;;;7.75;63.35;100037.37;4364541;32;35387;-89
2021/12/19 08:46:35;;;;;;;;;;;;;;;7.61;63.94;100039.41;4365258;32;32915;-90
2021/12/19 08:49:03;;;;;;;;;;;;;;;7.46;64.68;100056.50;4364889;32;31898;-88
2021/12/19 08:51:32;;;;;;;;;;;;;;;7.53;64.41;100053.25;4352929;32;31760;-88
2021/12/19 08:54:01;;;;;;;;;;;;;;;7.35;65.33;100048.56;4354074;32;35060;-88
2021/12/19 08:56:29;;;;;;;;;;;;;;;7.08;65.66;100032.16;4351602;32;33468;-89
2021/12/19 08:58:57;;;;;;;;;;;;;;;7.37;65.21;100028.09;4353337;32;32657;-90
2021/12/19 09:01:25;;;;;;;;;;;;;;;7.10;65.89;100035.50;4327692;32;33320;-89
2021/12/19 09:03:52;;;;;;;;;;;;;;;7.30;65.22;100040.97;4339455;32;35229;-88
2021/12/19 09:06:20;;;;;;;;;;;;;;;7.51;64.51;100022.56;4364930;32;33289;-89
2021/12/19 09:08:48;;;;;;;;;;;;;;;7.52;64.43;100030.41;4352202;32;33859;-90
2021/12/19 09:11:16;;;;;;;;;;;;;;;7.49;64.18;100022.72;4352488;32;34307;-90
2021/12/19 09:13:43;;;;;;;;;;;;;;;7.69;63.82;100013.19;4352760;32;34608;-90
2021/12/19 09:16:11;;;;;;;;;;;;;;;7.54;64.26;100022.34;4354187;32;34102;-91
2021/12/19 09:18:40;;;;;;;;;;;;;;;7.74;63.69;100026.91;4364816;32;33786;-91
2021/12/19 09:21:07;;;;;;;;;;;;;;;8.08;62.74;100015.31;4354393;32;33828;-91
2021/12/19 09:23:35;;;;;;;;;;;;;;;8.31;62.27;100009.03;4362965;32;35248;-91
2021/12/19 09:26:05;;;;;;;;;;;;;;;8.28;61.76;100006.63;4356909;32;33960;-91
2021/12/19 09:28:32;;;;;;;;;;;;;;;8.34;62.13;100009.63;4364539;32;32112;-89
2021/12/19 09:31:01;;;;;;;;;;;;;;;8.27;61.71;99992.53;4358430;32;35253;-90
2021/12/19 09:33:30;;;;;;;;;;;;;;;8.05;62.16;99989.91;4354526;32;35241;-89
2021/12/19 09:35:59;;;;;;;;;;;;;;;8.30;62.17;99986.97;4354353;32;33740;-89
2021/12/19 09:38:27;;;;;;;;;;;;;;;8.66;60.47;99973.34;4366801;32;33730;-89
2021/12/19 09:41:00;;;;;;;;;;;;;;;8.49;60.53;99966.78;4341708;32;32473;-92
2021/12/19 09:43:41;;;;;;;;;;;;;;;8.43;60.66;99971.75;4355931;32;34829;-89
2021/12/19 09:46:14;;;;;;;;;;;;;;;8.52;60.62;99968.34;4360675;32;34443;-87
2021/12/19 09:48:43;;;;;;;;;;;;;;;8.78;60.40;99953.72;4353679;32;32642;-89
2021/12/19 09:51:10;;;;;;;;;;;;;;;8.61;60.30;99963.09;4353672;32;32896;-89
2021/12/19 09:53:38;;;;;;;;;;;;;;;8.71;59.99;99944.62;4359986;32;35000;-93
2021/12/19 09:56:06;;;;;;;;;;;;;;;8.76;59.78;99942.41;4344737;32;33076;-91
2021/12/19 09:58:34;;;;;;;;;;;;;;;9.13;58.95;99931.22;4366292;32;32466;-91
2021/12/19 10:01:07;;;;;;;;;;;;;;;8.91;59.06;99923.38;4354339;32;33919;-92
2021/12/19 10:03:36;;;;;;;;;;;;;;;8.90;59.48;99903.13;4342698;32;35249;-91
2021/12/19 10:06:20;;;;;;;;;;;;;;;9.16;58.58;99898.25;4367061;32;33637;-91
2021/12/19 10:08:53;;;;;;;;;;;;;;;9.25;57.72;99892.97;4366365;32;32512;-89
2021/12/19 10:11:33;;;;;;;;;;;;;;;8.90;58.34;99887.22;4350181;32;33119;-88
2021/12/19 10:14:01;;;;;;;;;;;;;;;8.62;59.00;99892.38;4355276;32;35893;-90
2021/12/19 10:16:31;;;;;;;;;;;;;;;8.43;59.92;99884.28;4341942;32;34648;-88
2021/12/19 10:18:59;;;;;;;;;;;;;;;8.33;59.92;99890.47;4353739;32;31917;-89
2021/12/19 10:21:34;;;;;;;;;;;;;;;8.45;59.92;99883.16;4355179;32;34488;-88
2021/12/19 10:24:03;;;;;;;;;;;;;;;8.63;58.91;99864.87;4353805;32;34909;-88
2021/12/19 10:26:42;;;;;;;;;;;;;;;8.31;59.80;99853.47;4353898;32;35026;-88
2021/12/19 10:29:10;;;;;;;;;;;;;;;8.17;60.24;99856.41;4355317;32;33526;-88
2021/12/19 10:31:38;;;;;;;;;;;;;;;8.35;60.38;99862.00;4354278;32;34150;-90
2021/12/19 10:34:19;;;;;;;;;;;;;;;8.02;60.97;99873.56;4341208;32;35152;-89
2021/12/19 10:36:48;;;;;;;;;;;;;;;8.18;60.89;99860.75;4366570;32;34162;-93
2021/12/19 10:39:24;;;;;;;;;;;;;;;8.33;60.25;99851.56;4366073;32;33827;-90
2021/12/19 10:41:58;;;;;;;;;;;;;;;8.48;59.55;99839.66;4342416;32;34404;-91
2021/12/19 10:47:19;;;;;;;;;;;;;;;8.35;60.04;99840.81;4363655;32;34635;-91
2021/12/19 10:49:46;;;;;;;;;;;;;;;8.58;59.17;99849.34;4346093;32;33074;-88
2021/12/19 10:52:32;;;;;;;;;;;;;;;8.38;59.25;99848.53;4365399;32;32811;-89
2021/12/19 10:55:02;;;;;;;;;;;;;;;8.57;59.61;99854.78;4354476;32;34766;-92
2021/12/19 10:57:32;;;;;;;;;;;;;;;8.57;59.72;99871.53;4354144;32;35417;-91
2021/12/19 11:00:12;;;;;;;;;;;;;;;8.76;58.66;99861.03;4363974;32;33957;-89
2021/12/19 11:02:45;;;;;;;;;;;;;;;8.92;58.34;99865.88;4352697;32;32383;-93
2021/12/19 11:05:34;;;;;;;;;;;;;;;8.76;58.24;99858.38;4345497;32;34922;-92
2021/12/19 11:08:04;;;;;;;;;;;;;;;8.87;57.68;99863.63;4353538;32;33777;-91
2021/12/19 11:10:33;;;;;;;;;;;;;;;8.78;58.21;99866.19;4365032;32;34018;-89
2021/12/19 11:13:09;;;;;;;;;;;;;;;8.84;57.51;99860.38;4352625;32;32444;-89
2021/12/19 11:15:42;;;;;;;;;;;;;;;8.65;58.58;99865.56;4354032;32;35216;-90
2021/12/19 11:18:12;;;;;;;;;;;;;;;8.66;58.02;99865.44;4354497;32;34330;-90
2021/12/19 11:20:42;;;;;;;;;;;;;;;7.92;59.75;99885.06;4357078;32;34352;-92
2021/12/19 11:23:10;;;;;;;;;;;;;;;8.13;59.85;99888.59;4359047;32;33356;-91
2021/12/19 11:25:42;;;;;;;;;;;;;;;7.83;60.23;99905.19;4354557;32;34783;-92
2021/12/19 11:28:14;;;;;;;;;;;;;;;8.02;59.60;99888.66;4365780;32;33787;-89
2021/12/19 11:30:42;;;;;;;;;;;;;;;8.05;59.79;99891.88;4346025;32;33023;-92
2021/12/19 11:33:17;;;;;;;;;;;;;;;8.19;59.12;99883.66;4365188;32;34033;-90
2021/12/19 11:35:46;;;;;;;;;;;;;;;7.93;59.75;99886.75;4353107;32;36329;-91
2021/12/19 11:38:17;;;;;;;;;;;;;;;8.16;59.33;99878.59;4341185;32;33132;-89
2021/12/19 11:40:46;;;;;;;;;;;;;;;7.56;61.01;99874.81;4356797;32;34246;-92
2021/12/19 11:43:15;;;;;;;;;;;;;;;8.14;59.08;99871.72;4327930;32;34662;-90
2021/12/19 11:45:53;;;;;;;;;;;;;;;8.39;58.69;99869.59;4354042;32;34636;-92
2021/12/19 11:48:28;;;;;;;;;;;;;;;8.10;59.42;99870.31;4365049;32;34826;-89
2021/12/19 11:51:07;;;;;;;;;;;;;;;7.93;59.79;99869.03;4365675;32;31704;-90
2021/12/19 11:53:38;;;;;;;;;;;;;;;8.13;59.01;99864.75;4365455;32;34317;-92
2021/12/19 11:56:10;;;;;;;;;;;;;;;8.56;58.04;99853.09;4362326;32;34313;-90
2021/12/19 11:58:44;;;;;;;;;;;;;;;7.97;59.72;99864.31;4365903;32;34025;-91
2021/12/19 12:01:27;;;;;;;;;;;;;;;7.85;59.55;99862.69;4366109;32;32137;-91
2021/12/19 12:03:59;;;;;;;;;;;;;;;8.00;59.04;99856.97;4356811;32;34322;-89
2021/12/19 12:06:32;;;;;;;;;;;;;;;8.23;58.74;99850.66;4360197;32;34304;-91
2021/12/19 12:09:02;;;;;;;;;;;;;;;8.25;58.77;99856.66;4353127;32;35426;-90
2021/12/19 12:11:31;;;;;;;;;;;;;;;8.08;58.57;99858.97;4354801;32;34809;-89
2021/12/19 12:14:19;;;;;;;;;;;;;;;8.38;58.38;99854.66;4353692;32;34119;-90
2021/12/19 12:16:57;;;;;;;;;;;;;;;8.26;58.35;99854.84;4340621;32;34355;-90
2021/12/19 12:19:37;;;;;;;;;;;;;;;8.13;58.62;99848.84;4362648;32;34684;-90
2021/12/19 12:22:31;;;;;;;;;;;;;;;8.16;58.70;99845.94;4353313;32;32002;-90
2021/12/19 12:25:02;;;;;;;;;;;;;;;7.59;60.33;99848.09;4365483;32;34258;-90
2021/12/19 12:27:35;;;;;;;;;;;;;;;8.11;59.12;99848.16;4357321;32;33973;-91
2021/12/19 12:30:04;;;;;;;;;;;;;;;7.98;59.02;99843.03;4365258;32;34974;-91
2021/12/19 12:32:33;;;;;;;;;;;;;;;7.88;59.62;99847.41;4354404;32;32492;-91
2021/12/19 12:35:05;;;;;;;;;;;;;;;8.26;58.51;99833.63;4360159;32;33799;-90
2021/12/19 12:37:35;;;;;;;;;;;;;;;8.38;58.27;99832.63;4354711;32;35523;-89
2021/12/19 12:40:22;;;;;;;;;;;;;;;7.72;59.74;99833.72;4348665;32;32791;-91
2021/12/19 12:42:54;;;;;;;;;;;;;;;7.71;60.04;99816.16;4345087;32;32448;-90
2021/12/19 12:45:21;;;;;;;;;;;;;;;7.89;59.47;99829.69;4365011;32;34019;-89
2021/12/19 12:47:49;;;;;;;;;;;;;;;8.16;59.09;99817.66;4366016;32;34880;-91
2021/12/19 12:50:19;;;;;;;;;;;;;;;7.97;59.32;99804.25;4360850;32;34500;-92
2021/12/19 12:52:46;;;;;;;;;;;;;;;8.03;59.00;99810.84;4352866;32;31518;-91
2021/12/19 12:55:14;;;;;;;;;;;;;;;7.95;59.45;99814.16;4353002;32;34091;-91
2021/12/19 12:57:44;;;;;;;;;;;;;;;7.91;59.57;99804.75;4348594;32;34433;-88
2021/12/19 13:00:21;;;;;;;;;;;;;;;8.00;59.38;99816.41;4342127;32;33256;-91
2021/12/19 13:03:10;;;;;;;;;;;;;;;7.66;60.10;99805.09;4340290;32;32112;-92
2021/12/19 13:05:37;;;;;;;;;;;;;;;7.67;60.16;99806.81;4351834;32;32911;-91
2021/12/19 13:08:06;;;;;;;;;;;;;;;7.60;60.31;99800.31;4349508;32;35381;-93
2021/12/19 13:13:44;;;;;;;;;;;;;;;;;;;;;
2021/12/19 13:20:54;;;;;;;;;;;;;;;7.74;60.29;99781.47;4321526;33;36983;-89
2021/12/19 13:33:05;;;;;;;;;;;;;;;7.66;60.54;99772.50;4307631;33;35383;-91
2021/12/19 13:43:02;;;;;;;;;;;;;;;7.71;60.78;99762.34;4316833;33;34106;-90
2021/12/19 13:46:57;;;;;;;;;;;;;;;8.02;60.18;99758.84;4301873;33;34410;-89
2021/12/19 13:49:30;;;;;;;;;;;;;;;7.77;60.66;99745.97;4320469;33;33747;-90
2021/12/19 14:06:16;;;;;;;;;;;;;;;;;;;;;
2021/12/19 14:35:20;;;;;;;;;;;;;;;7.69;59.74;99749.25;4298434;33;33102;-88
2021/12/19 14:41:27;;;;;;;;;;;;;;;7.64;60.53;99737.38;4287273;33;34033;-90
2021/12/19 14:53:11;;;;;;;;;;;;;;;7.81;59.72;99736.81;4230726;33;34895;-91
2021/12/19 14:56:20;;;;;;;;;;;;;;;7.88;59.79;99728.22;4214933;33;35390;-92
2021/12/19 15:02:21;;;;;;;;;;;;;;;8.30;58.50;99721.94;4229948;33;33900;-91
2021/12/19 15:19:11;;;;;;;;;;;;;;;;;;;;;
2021/12/19 15:22:04;;;;;;;;;;;;;;;;;;;;;
2021/12/19 15:27:57;;;;;;;;;;;;;;;8.25;58.19;99707.41;4394872;32;32008;-82
2021/12/19 15:40:13;;;;;;;;;;;;;;;;;;;;;
2021/12/19 15:43:23;;;;;;;;;;;;;;;;;;;;;
2021/12/19 15:53:10;;;;;;;;;;;;;;;8.01;59.08;99693.59;4388497;32;33881;-81
2021/12/19 15:59:24;;;;;;;;;;;;;;;7.46;60.82;99699.19;4330520;33;35347;-81
2021/12/19 16:14:34;;;;;;;;;;;;;;;7.79;60.20;99675.16;4343583;33;32641;-82
2021/12/19 16:18:07;;;;;;;;;;;;;;;;;;;;;
2021/12/19 16:27:22;;;;;;;;;;;;;;;8.11;59.46;99662.69;4371246;32;32082;-82
2021/12/19 16:36:59;;;;;;;;;;;;;;;;;;;;;
2021/12/19 16:39:55;;;;;;;;;;;;;;;8.10;59.44;99645.09;4361586;32;34166;-82
2021/12/19 16:46:37;;;;;;;;;;;;;;;;;;;;;
2021/12/19 16:50:22;;;;;;;;;;;;;;;7.94;59.93;99648.22;4357332;32;34822;-82
2021/12/19 16:53:00;;;;;;;;;;;;;;;;;;;;;
2021/12/19 16:56:08;;;;;;;;;;;;;;;;;;;;;
2021/12/19 16:59:40;;;;;;;;;;;;;;;8.01;59.80;99646.72;4391469;32;36002;-81
2021/12/19 17:02:24;;;;;;;;;;;;;;;;;;;;;
2021/12/19 17:12:10;;;;;;;;;;;;;;;7.89;59.74;99623.94;4347912;32;35076;-82
2021/12/19 17:24:09;;;;;;;;;;;;;;;7.80;60.21;99613.28;4376069;32;34877;-81